createdAt,value
2022-08-17T00:00:40.543Z,73.62
2022-08-17T00:05:48.667Z,72.88
2022-08-17T00:10:56.633Z,74.52
2022-08-17T00:16:04.699Z,75.49
2022-08-17T00:21:11.239Z,75.67
2022-08-17T00:26:19.598Z,76.85
2022-08-17T00:31:28.033Z,76.52
2022-08-17T00:36:36.927Z,75.78
2022-08-17T00:41:44.549Z,74.85
2022-08-17T00:46:51.738Z,75.28
2022-08-17T00:51:59.442Z,76.24
2022-08-17T00:57:07.047Z,75.83
2022-08-17T01:02:15.886Z,76.48
2022-08-17T01:07:23.435Z,76.58
2022-08-17T01:12:31.493Z,75.76
2022-08-17T01:17:38.814Z,75.12001
2022-08-17T01:22:47.762Z,75.64
2022-08-17T01:37:06.309Z,77.29
2022-08-17T01:42:12.797Z,77.42
2022-08-17T01:47:22.330Z,77.47
2022-08-17T01:52:28.383Z,77.6
2022-08-17T01:57:36.216Z,77.98
2022-08-17T02:02:43.432Z,78.75
2022-08-17T02:07:50.570Z,79.96
2022-08-17T02:12:58.784Z,80.12
2022-08-17T02:18:06.306Z,80.72001
2022-08-17T02:23:13.499Z,79.9
2022-08-17T02:28:21.129Z,80.4
2022-08-17T02:33:27.903Z,80.69
2022-08-17T02:38:36.896Z,80.63
2022-08-17T02:43:44.237Z,81.02
2022-08-17T02:48:52.338Z,81.14
2022-08-17T02:53:59.965Z,81.2
2022-08-17T02:59:07.514Z,80.98001
2022-08-17T03:04:14.359Z,81.50001
2022-08-17T03:09:22.323Z,82.28
2022-08-17T03:14:30.273Z,83.04
2022-08-17T03:19:37.322Z,82.26001
2022-08-17T03:24:44.632Z,82.35
2022-08-17T03:29:52.212Z,83.06
2022-08-17T03:35:00.166Z,83.51001
2022-08-17T03:40:07.290Z,83.36
2022-08-17T03:45:14.486Z,83.85
2022-08-17T03:50:22.870Z,83.57
2022-08-17T03:55:31.018Z,83.95
2022-08-17T04:00:37.334Z,84.11
2022-08-17T04:05:45.174Z,84.31
2022-08-17T04:10:54.044Z,83.96
2022-08-17T04:16:02.316Z,84.39
2022-08-17T04:21:10.133Z,84.64
2022-08-17T04:26:17.997Z,84.52
2022-08-17T04:31:25.636Z,83.04
2022-08-17T04:36:34.705Z,79.4
2022-08-17T04:41:44.263Z,74.22
2022-08-17T04:46:51.690Z,68.82
2022-08-17T04:52:07.262Z,64.4
2022-08-17T04:57:15.385Z,62.1
2022-08-17T05:02:22.315Z,59.2
2022-08-17T05:07:29.487Z,59.13
2022-08-17T05:12:37.384Z,58.12
2022-08-17T05:17:44.770Z,57.66
2022-08-17T05:22:52.496Z,56.03
2022-08-17T05:27:59.611Z,53.95
2022-08-17T05:33:07.868Z,53.34
2022-08-17T05:38:15.859Z,51.96
2022-08-17T05:43:24.038Z,51.02
2022-08-17T05:48:38.085Z,49.94
2022-08-17T05:53:45.853Z,50.37
2022-08-17T05:58:54.066Z,49.58
2022-08-17T06:04:01.888Z,48.19
2022-08-17T06:09:09.188Z,45.68
2022-08-17T06:14:16.983Z,47.12
2022-08-17T06:19:23.934Z,46.31
2022-08-17T06:24:31.527Z,45.59
2022-08-17T06:29:38.146Z,47.37
2022-08-17T06:34:45.750Z,48.3
2022-08-17T06:39:53.781Z,49.9
2022-08-17T06:45:00.393Z,49.97
2022-08-17T06:50:07.617Z,49.22
2022-08-17T06:55:15.280Z,49.9
2022-08-17T07:00:22.882Z,49.17
2022-08-17T07:05:31.092Z,50.75
2022-08-17T07:15:40.967Z,49.81
2022-08-17T07:16:43.775Z,50.25
2022-08-17T07:21:49.871Z,49.59
2022-08-17T07:26:57.575Z,49.54
2022-08-17T07:32:06.525Z,49.26
2022-08-17T07:37:13.841Z,49.09
2022-08-17T07:42:22.813Z,49.22
2022-08-17T07:47:30.172Z,50.26
2022-08-17T07:52:37.933Z,49.72
2022-08-17T07:57:45.003Z,49.74
2022-08-17T08:02:53.338Z,49.55
2022-08-17T08:08:02.948Z,48.1
2022-08-17T08:13:11.184Z,48.75
2022-08-17T08:23:47.713Z,46.78
2022-08-17T08:28:55.834Z,46.4
2022-08-17T08:34:03.451Z,46.42
2022-08-17T08:39:12.735Z,45.49
2022-08-17T08:44:20.652Z,44.25
2022-08-17T08:49:28.880Z,44.13
2022-08-17T08:54:37.287Z,43.74
2022-08-17T08:59:45.821Z,42.37
2022-08-17T09:04:54.241Z,42.68
2022-08-17T09:10:01.901Z,41.23
2022-08-17T09:15:09.866Z,41.92
2022-08-17T09:20:16.893Z,41.58
2022-08-17T09:25:24.358Z,40.2
2022-08-17T09:30:32.110Z,40.39
2022-08-17T09:35:40.387Z,39.17
2022-08-17T09:40:48.196Z,38.97
2022-08-17T09:45:56.614Z,39.64
2022-08-17T09:51:04.799Z,39.27
2022-08-17T09:56:12.412Z,38.88
2022-08-17T10:01:20.287Z,37.91
2022-08-17T10:06:27.415Z,39.14
2022-08-17T10:11:35.583Z,37.85
2022-08-17T10:16:43.710Z,37.88
2022-08-17T10:21:52.135Z,37.42
2022-08-17T10:26:59.014Z,37.56
2022-08-17T10:32:06.141Z,37.83
2022-08-17T10:37:13.811Z,36.75
2022-08-17T10:42:22.161Z,37.42
2022-08-17T10:47:29.250Z,36.24
2022-08-17T10:52:38.076Z,36.64
2022-08-17T10:57:45.593Z,35.32
2022-08-17T11:02:54.935Z,35.11
2022-08-17T11:08:02.168Z,35.16
2022-08-17T11:13:09.739Z,32.86
2022-08-17T11:18:18.363Z,34.22
2022-08-17T11:23:26.301Z,33.68
2022-08-17T11:28:33.537Z,34.82
2022-08-17T11:33:41.568Z,35.42
2022-08-17T11:38:50.331Z,34.11
2022-08-17T11:43:58.295Z,33.98
2022-08-17T11:49:06.006Z,33.47
2022-08-17T11:54:14.619Z,33.5
2022-08-17T11:59:27.809Z,32.61
2022-08-17T12:04:34.408Z,33.11
2022-08-17T12:09:42.276Z,32.74
2022-08-17T12:14:48.690Z,33.03
2022-08-17T12:19:55.413Z,32.84
2022-08-17T12:25:02.496Z,33.32
2022-08-17T12:30:10.808Z,32.04
2022-08-17T12:35:17.677Z,32.04
2022-08-17T12:40:24.540Z,33.05
2022-08-17T12:45:32.061Z,32.31
2022-08-17T12:50:39.825Z,31.97
2022-08-17T12:55:46.261Z,31.79
2022-08-17T13:00:54.939Z,31.72
2022-08-17T13:06:01.863Z,30.72
2022-08-17T13:11:09.053Z,31.06
2022-08-17T13:16:16.928Z,31.08
2022-08-17T13:21:25.254Z,30.77
2022-08-17T13:26:33.547Z,30.92
2022-08-17T13:31:41.800Z,29.72
2022-08-17T13:36:49.633Z,29.9
2022-08-17T13:41:56.042Z,29.91
2022-08-17T13:47:03.920Z,31.65
2022-08-17T13:52:12.521Z,29.58
2022-08-17T13:57:20.246Z,29.03
2022-08-17T14:02:27.451Z,29.19
2022-08-17T14:07:34.327Z,29.42
2022-08-17T14:12:42.832Z,29.7
2022-08-17T14:17:50.533Z,32.06
2022-08-17T14:22:58.495Z,29.55
2022-08-17T14:28:05.352Z,29.91
2022-08-17T14:33:13.353Z,30.36
2022-08-17T14:38:22.123Z,30.85
2022-08-17T14:43:29.497Z,30.31
2022-08-17T14:48:36.744Z,33.04
2022-08-17T14:53:45.046Z,29.88
2022-08-17T14:58:52.778Z,31.3
2022-08-17T15:04:04.789Z,32.48
2022-08-17T15:09:12.506Z,31.53
2022-08-17T15:14:19.735Z,32.84
2022-08-17T15:19:27.951Z,31.34
2022-08-17T15:24:34.778Z,31.2
2022-08-17T15:29:42.722Z,31.57
2022-08-17T15:34:51.028Z,32.15
2022-08-17T15:39:58.925Z,31.84
2022-08-17T15:45:06.760Z,32.12
2022-08-17T15:50:19.662Z,32.13
2022-08-17T15:55:27.193Z,33.06
2022-08-17T16:00:34.566Z,31.74
2022-08-17T16:05:41.053Z,31.78
2022-08-17T16:10:49.852Z,32.15
2022-08-17T16:15:56.447Z,32.84
2022-08-17T16:21:04.454Z,33.35
2022-08-17T16:26:12.627Z,33.98
2022-08-17T16:31:21.272Z,34.15
2022-08-17T16:36:28.911Z,34.43
2022-08-17T16:41:37.707Z,36.0
2022-08-17T16:46:44.341Z,36.28
2022-08-17T16:51:52.542Z,36.18
2022-08-17T16:57:00.636Z,37.23
2022-08-17T17:02:08.561Z,37.53
2022-08-17T17:07:15.866Z,37.66
2022-08-17T17:12:23.684Z,37.59
2022-08-17T17:17:31.681Z,37.51
2022-08-17T17:22:39.507Z,37.33
2022-08-17T17:27:46.861Z,37.54
2022-08-17T17:32:54.657Z,37.48
2022-08-17T17:38:02.557Z,37.48
2022-08-17T17:43:09.700Z,39.22
2022-08-17T17:48:16.985Z,40.37
2022-08-17T17:53:25.041Z,41.08
2022-08-17T17:58:32.510Z,40.25
2022-08-17T18:03:40.182Z,41.98
2022-08-17T18:08:47.560Z,43.16
2022-08-17T18:13:55.690Z,44.24
2022-08-17T18:19:03.295Z,45.18
2022-08-17T18:24:10.460Z,46.13
2022-08-17T18:29:17.749Z,47.03
2022-08-17T18:34:24.588Z,47.97
2022-08-17T18:39:33.281Z,48.59
2022-08-17T18:44:40.701Z,48.77
2022-08-17T18:49:48.193Z,49.45
2022-08-17T18:54:56.721Z,49.96
2022-08-17T19:00:10.785Z,50.2
2022-08-17T19:05:17.774Z,50.71
2022-08-17T19:10:24.895Z,51.41
2022-08-17T19:15:31.446Z,52.14
2022-08-17T19:20:38.661Z,52.53
2022-08-17T19:25:46.897Z,53.22
2022-08-17T19:30:53.696Z,53.92
2022-08-17T19:36:01.442Z,54.57
2022-08-17T19:41:10.200Z,54.55
2022-08-17T19:46:17.407Z,55.02
2022-08-17T19:51:26.760Z,55.49
2022-08-17T19:56:34.184Z,55.95
2022-08-17T20:01:42.617Z,56.5
2022-08-17T20:06:52.556Z,56.85
2022-08-17T20:12:00.184Z,57.12
2022-08-17T20:17:06.813Z,57.5
2022-08-17T20:22:14.012Z,57.78
2022-08-17T20:27:22.693Z,58.23
2022-08-17T20:32:30.617Z,58.35
2022-08-17T20:37:37.603Z,58.83
2022-08-17T20:42:45.050Z,59.59
2022-08-17T20:47:53.105Z,59.48
2022-08-17T20:53:01.053Z,58.85
2022-08-17T20:58:09.312Z,58.36
2022-08-17T21:03:16.092Z,58.53
2022-08-17T21:08:23.894Z,58.4
2022-08-17T21:13:31.769Z,58.68
2022-08-17T21:18:39.404Z,59.45
2022-08-17T21:23:47.486Z,59.92
2022-08-17T21:28:54.650Z,60.63
2022-08-17T21:34:01.855Z,61.4
2022-08-17T21:39:09.926Z,62.2
2022-08-17T21:44:19.915Z,62.49
2022-08-17T21:49:26.653Z,62.84
2022-08-17T21:54:33.860Z,62.99
2022-08-17T21:59:41.705Z,63.59
2022-08-17T22:04:49.994Z,63.98
2022-08-17T22:09:58.172Z,64.22
2022-08-17T22:15:05.957Z,64.01
2022-08-17T22:20:14.008Z,64.2
2022-08-17T22:25:22.542Z,64.59
2022-08-17T22:30:29.372Z,65.12001
2022-08-17T22:35:37.021Z,64.8
2022-08-17T22:40:45.416Z,64.93
2022-08-17T22:45:53.737Z,65.39
2022-08-17T22:51:01.939Z,65.75
2022-08-17T22:56:09.218Z,66.36
2022-08-17T23:01:16.416Z,66.14
2022-08-17T23:06:23.413Z,66.44001
2022-08-17T23:11:31.991Z,67.05
2022-08-17T23:16:40.578Z,67.5
2022-08-17T23:21:48.079Z,67.68
2022-08-17T23:26:55.854Z,68.5
2022-08-17T23:32:04.261Z,68.17
2022-08-17T23:37:11.341Z,68.43
2022-08-17T23:42:19.708Z,68.49
2022-08-17T23:47:27.821Z,68.44
2022-08-17T23:52:35.855Z,68.33
2022-08-17T23:57:44.134Z,68.84
